Time;durP1;ratioP1;P1;durP2;ratioP2;P2;SDS_P1;SDS_P2;PMS_P1;PMS_P2;Temp;Humidity;BMP_temperature;BMP_pressure;BME280_temperature;BME280_humidity;BME280_pressure;Samples;Min_cycle;Max_cycle;Signal;HPM_P1;HPM_P2
2022/04/15 00:02:33;;;;;;;7.15;3.85;;;;;;;11.71;35.39;100107.34;7683639;32;40724;-73
2022/04/15 00:06:49;;;;;;;8.65;3.50;;;;;;;11.89;33.94;100101.34;7683259;32;38791;-73
2022/04/15 00:11:05;;;;;;;9.57;3.33;;;;;;;12.06;33.79;100103.03;7683280;32;37034;-72
2022/04/15 00:15:21;;;;;;;6.65;2.83;;;;;;;11.56;35.21;100094.50;7683301;32;39246;-73
2022/04/15 00:19:37;;;;;;;5.68;3.40;;;;;;;11.61;35.46;100098.06;7683092;32;39980;-73
2022/04/15 00:23:56;;;;;;;8.10;3.22;;;;;;;11.68;34.51;100096.97;7682944;32;38679;-73
2022/04/15 00:28:12;;;;;;;6.85;3.10;;;;;;;11.45;35.52;100086.28;7683139;32;36245;-73
2022/04/15 00:32:28;;;;;;;5.78;3.00;;;;;;;11.48;35.94;100081.37;7683283;32;39201;-73
2022/04/15 00:36:44;;;;;;;8.15;3.15;;;;;;;11.62;35.10;100079.75;7682458;32;40621;-72
2022/04/15 00:41:00;;;;;;;10.40;3.87;;;;;;;11.69;35.54;100063.91;7682408;32;37747;-73
2022/04/15 00:45:16;;;;;;;8.23;3.50;;;;;;;11.43;36.34;100071.25;7682393;32;37470;-73
2022/04/15 00:49:32;;;;;;;7.35;3.92;;;;;;;11.34;36.69;100064.72;7682530;32;39938;-73
2022/04/15 00:53:49;;;;;;;9.38;3.92;;;;;;;11.15;37.88;100065.19;7682156;32;39899;-73
2022/04/15 00:58:06;;;;;;;7.10;3.53;;;;;;;11.11;38.29;100058.66;7681936;32;37990;-73
2022/04/15 01:02:24;;;;;;;7.28;3.58;;;;;;;11.04;38.54;100064.34;7681981;32;36839;-73
2022/04/15 01:06:40;;;;;;;7.53;3.85;;;;;;;11.15;38.41;100057.00;7685627;32;39832;-73
2022/04/15 01:10:58;;;;;;;8.02;3.70;;;;;;;11.06;39.02;100055.91;7685916;32;40934;-73
2022/04/15 01:15:14;;;;;;;9.85;4.00;;;;;;;11.22;38.58;100049.38;7685700;32;37593;-73
2022/04/15 01:19:31;;;;;;;6.50;3.90;;;;;;;11.16;39.04;100055.94;7685724;32;37003;-73
2022/04/15 01:23:47;;;;;;;6.85;3.40;;;;;;;11.11;39.51;100053.19;7685733;32;40055;-72
2022/04/15 01:28:04;;;;;;;7.87;3.95;;;;;;;10.77;40.83;100052.81;7685777;32;40902;-73
2022/04/15 01:32:20;;;;;;;11.75;4.15;;;;;;;10.74;40.77;100054.16;7685537;32;38580;-74
2022/04/15 01:36:36;;;;;;;10.68;4.10;;;;;;;10.69;40.82;100054.97;7685423;32;36956;-74
2022/04/15 01:40:52;;;;;;;9.35;3.70;;;;;;;10.50;41.52;100049.16;7684838;32;40072;-73
2022/04/15 01:45:09;;;;;;;7.18;3.50;;;;;;;10.69;39.62;100052.22;7685505;32;40627;-73
2022/04/15 01:49:25;;;;;;;8.07;3.95;;;;;;;10.78;39.27;100051.69;7685087;32;37909;-73
2022/04/15 01:53:41;;;;;;;6.55;3.75;;;;;;;10.03;43.28;100060.81;7685232;32;37005;-73
2022/04/15 01:57:58;;;;;;;7.40;3.97;;;;;;;10.18;42.23;100062.81;7684002;32;39287;-73
2022/04/15 02:02:14;;;;;;;7.50;3.72;;;;;;;10.21;42.11;100058.75;7685198;32;40214;-73
2022/04/15 02:06:30;;;;;;;6.35;3.72;;;;;;;9.92;42.78;100064.56;7684979;32;38027;-73
2022/04/15 02:10:46;;;;;;;9.13;3.80;;;;;;;10.02;43.39;100059.19;7685210;32;38104;-73
2022/04/15 02:15:03;;;;;;;9.05;3.92;;;;;;;10.51;41.42;100042.59;7684761;32;39078;-73
2022/04/15 02:19:19;;;;;;;7.78;3.72;;;;;;;10.02;42.09;100058.34;7684621;32;39893;-74
2022/04/15 02:23:35;;;;;;;8.88;4.00;;;;;;;10.17;41.98;100052.19;7658591;32;38485;-73
2022/04/15 02:27:51;;;;;;;12.27;3.92;;;;;;;10.12;41.78;100051.06;7658617;32;37110;-73
2022/04/15 02:32:07;;;;;;;9.88;3.70;;;;;;;10.09;42.35;100058.94;7658527;32;40079;-73
2022/04/15 02:36:23;;;;;;;11.43;3.92;;;;;;;9.95;43.52;100053.94;7659186;32;40079;-73
2022/04/15 02:40:39;;;;;;;10.60;3.92;;;;;;;10.16;43.33;100056.81;7684540;32;38808;-73
2022/04/15 02:44:56;;;;;;;7.70;3.80;;;;;;;9.99;43.97;100054.25;7683719;32;37891;-73
2022/04/15 02:49:12;;;;;;;5.18;2.87;;;;;;;10.17;42.42;100041.28;7684450;32;39575;-73
2022/04/15 02:53:29;;;;;;;5.93;3.50;;;;;;;10.24;41.22;100036.41;7684568;32;39984;-73
2022/04/15 02:57:45;;;;;;;6.78;3.62;;;;;;;10.40;40.16;100035.47;7684374;32;38612;-73
2022/04/15 03:02:01;;;;;;;8.63;3.55;;;;;;;10.18;40.11;100032.03;7684665;32;37109;-73
2022/04/15 03:06:17;;;;;;;8.13;4.03;;;;;;;10.13;40.52;100039.09;7684364;32;39268;-73
2022/04/15 03:10:34;;;;;;;12.23;4.22;;;;;;;10.00;42.14;100039.53;7684609;32;39882;-73
2022/04/15 03:14:53;;;;;;;5.25;3.80;;;;;;;10.11;42.44;100032.28;7684260;32;38642;-73
2022/04/15 03:19:09;;;;;;;7.35;4.07;;;;;;;9.77;45.37;100038.81;7684810;32;34803;-73
2022/04/15 03:23:25;;;;;;;7.85;3.97;;;;;;;10.09;42.89;100020.78;7684435;32;39408;-74
2022/04/15 03:27:41;;;;;;;12.27;4.30;;;;;;;10.06;42.62;100024.88;7683205;32;40712;-73
2022/04/15 03:31:57;;;;;;;7.32;3.90;;;;;;;10.00;44.39;100017.75;7684014;32;38080;-73
2022/04/15 03:36:14;;;;;;;8.13;3.83;;;;;;;9.98;44.90;100030.81;7683824;32;37283;-73
2022/04/15 03:40:30;;;;;;;10.10;3.70;;;;;;;10.04;43.62;100018.88;7683925;32;40059;-73
2022/04/15 03:44:46;;;;;;;6.82;3.40;;;;;;;10.05;42.59;100023.22;7683770;32;41241;-73
2022/04/15 03:49:02;;;;;;;9.38;4.40;;;;;;;9.57;42.34;100016.87;7683847;32;38070;-73
2022/04/15 03:53:18;;;;;;;6.90;4.30;;;;;;;9.61;43.03;100023.47;7683713;32;37173;-73
2022/04/15 03:57:34;;;;;;;8.10;4.30;;;;;;;9.57;44.26;100011.44;7683614;32;39093;-73
2022/04/15 04:01:50;;;;;;;7.57;3.65;;;;;;;9.70;43.94;100015.62;7683532;32;39120;-73
2022/04/15 04:06:06;;;;;;;6.12;3.83;;;;;;;9.94;42.01;100007.91;7682874;32;37574;-73
2022/04/15 04:10:22;;;;;;;9.70;4.30;;;;;;;9.71;42.94;100015.38;7683481;32;37528;-73
2022/04/15 04:14:38;;;;;;;10.50;3.47;;;;;;;9.77;43.94;100014.31;7683022;32;39294;-72
2022/04/15 04:18:55;;;;;;;8.55;4.30;;;;;;;9.75;43.26;100016.50;7682969;32;40031;-73
2022/04/15 04:23:11;;;;;;;8.43;3.85;;;;;;;9.86;43.43;100016.56;7682969;32;37986;-73
2022/04/15 04:27:27;;;;;;;9.60;4.03;;;;;;;9.71;43.80;100018.09;7679643;32;37755;-72
2022/04/15 04:31:43;;;;;;;7.62;4.00;;;;;;;9.80;43.56;100025.78;7674607;32;39337;-73
2022/04/15 04:35:59;;;;;;;6.82;3.97;;;;;;;9.91;43.20;100030.22;7682445;32;39977;-72
2022/04/15 04:40:16;;;;;;;8.80;3.72;;;;;;;10.24;46.91;100018.16;7659364;32;37873;-73
2022/04/15 04:44:33;;;;;;;7.03;3.35;;;;;;;10.43;43.87;100015.84;7659671;32;37823;-72
2022/04/15 04:48:49;;;;;;;6.32;4.00;;;;;;;10.75;47.04;100020.34;7658973;32;40013;-74
2022/04/15 04:53:05;;;;;;;7.50;3.60;;;;;;;10.66;43.46;100024.69;7658748;32;39851;-71
2022/04/15 04:57:22;;;;;;;11.10;6.40;;;;;;;10.44;44.13;100028.38;7658125;32;38484;-73
2022/04/15 05:01:41;;;;;;;8.63;5.35;;;;;;;10.36;44.10;100028.88;7659361;32;37324;-73
2022/04/15 05:05:57;;;;;;;8.75;4.50;;;;;;;10.42;43.50;100029.75;7659678;32;40056;-72
2022/04/15 05:10:13;;;;;;;11.10;5.25;;;;;;;10.22;45.42;100033.97;7685688;32;40065;-72
2022/04/15 05:14:29;;;;;;;13.32;8.73;;;;;;;10.04;47.09;100032.50;7685336;32;38595;-74
2022/04/15 05:18:45;;;;;;;9.90;4.35;;;;;;;10.11;47.15;100032.28;7684866;32;37875;-72
2022/04/15 05:23:01;;;;;;;17.75;6.85;;;;;;;10.31;46.89;100028.81;7684538;32;39273;-73
2022/04/15 05:27:18;;;;;;;18.67;5.53;;;;;;;10.13;48.11;100036.34;7684063;32;40017;-73
2022/04/15 05:31:34;;;;;;;15.80;5.90;;;;;;;10.56;47.24;100030.09;7684745;32;39125;-73
2022/04/15 05:35:50;;;;;;;13.90;8.10;;;;;;;10.19;47.51;100025.50;7685311;32;36999;-73
2022/04/15 05:40:07;;;;;;;10.95;5.57;;;;;;;10.39;47.70;100047.44;7685029;32;39984;-73
2022/04/15 05:44:23;;;;;;;7.20;4.20;;;;;;;10.89;46.45;100046.03;7665495;32;39978;-73
2022/04/15 05:48:39;;;;;;;9.30;3.97;;;;;;;11.02;46.33;100049.31;7658438;32;38817;-74
2022/04/15 05:52:55;;;;;;;8.63;4.22;;;;;;;11.02;45.63;100054.78;7663281;32;37121;-73
2022/04/15 05:57:11;;;;;;;6.78;3.92;;;;;;;11.38;45.12;100049.41;7685349;32;40148;-72
2022/04/15 06:01:27;;;;;;;16.00;4.57;;;;;;;11.54;45.14;100045.62;7685136;32;40001;-72
2022/04/15 06:05:43;;;;;;;8.75;4.10;;;;;;;11.22;44.31;100045.84;7685118;32;38926;-73
2022/04/15 06:09:59;;;;;;;7.37;3.85;;;;;;;10.92;46.93;100046.56;7685173;32;37085;-74
2022/04/15 06:14:16;;;;;;;8.48;3.75;;;;;;;11.25;46.54;100057.03;7683882;32;40064;-72
2022/04/15 06:18:36;;;;;;;11.25;4.47;;;;;;;11.57;46.47;100042.34;7684497;32;39918;-72
2022/04/15 06:22:52;;;;;;;7.55;3.40;;;;;;;12.06;45.17;100041.00;7684568;32;38074;-72
2022/04/15 06:27:08;;;;;;;10.30;4.62;;;;;;;12.70;38.98;100044.09;7684052;32;38070;-73
2022/04/15 06:31:24;;;;;;;10.05;3.60;;;;;;;12.83;41.81;100048.13;7684385;32;39417;-74
2022/04/15 06:35:40;;;;;;;8.00;3.58;;;;;;;13.14;40.97;100044.16;7684554;32;40056;-73
2022/04/15 06:39:56;;;;;;;11.38;3.85;;;;;;;13.69;40.01;100041.34;7684208;32;38008;-74
2022/04/15 06:44:12;;;;;;;7.22;3.37;;;;;;;13.42;39.74;100054.69;7684597;32;37182;-74
2022/04/15 06:48:28;;;;;;;16.80;4.75;;;;;;;13.87;40.51;100049.97;7684731;32;40188;-74
2022/04/15 06:52:44;;;;;;;10.77;4.40;;;;;;;13.98;34.49;100051.50;7681660;32;40788;-74
2022/04/15 06:57:00;;;;;;;8.00;3.90;;;;;;;14.30;33.45;100046.53;7681166;32;38279;-74
2022/04/15 07:01:16;;;;;;;8.82;3.75;;;;;;;14.49;36.26;100050.19;7681312;32;37844;-74
2022/04/15 07:05:32;;;;;;;7.45;3.85;;;;;;;14.57;38.80;100040.47;7682158;32;39468;-74
2022/04/15 07:09:53;;;;;;;9.65;3.97;;;;;;;14.52;33.53;100046.87;7684659;32;39625;-74
2022/04/15 07:14:09;;;;;;;6.87;3.50;;;;;;;14.18;38.41;100061.47;7684406;32;37956;-74
2022/04/15 07:18:25;;;;;;;7.72;4.03;;;;;;;14.37;36.81;100069.78;7684391;32;37792;-74
2022/04/15 07:22:41;;;;;;;7.65;3.55;;;;;;;14.23;36.36;100075.13;7684458;32;39413;-75
2022/04/15 07:26:57;;;;;;;7.53;3.50;;;;;;;14.15;33.11;100080.44;7684328;32;39993;-74
2022/04/15 07:31:13;;;;;;;9.52;3.95;;;;;;;14.58;33.41;100092.34;7684059;32;38712;-74
2022/04/15 07:35:29;;;;;;;9.98;4.00;;;;;;;14.38;31.84;100092.53;7684144;32;37442;-74
2022/04/15 07:39:45;;;;;;;21.70;4.57;;;;;;;14.25;32.89;100105.81;7684144;32;39409;-74
2022/04/15 07:44:02;;;;;;;8.95;3.50;;;;;;;14.92;33.49;100107.06;7683896;32;39858;-74
2022/04/15 07:48:18;;;;;;;8.25;3.97;;;;;;;14.68;34.13;100107.06;7683853;32;38065;-74
2022/04/15 07:52:35;;;;;;;20.33;4.05;;;;;;;15.01;30.76;100108.06;7683904;32;37037;-74
2022/04/15 07:56:51;;;;;;;9.98;3.97;;;;;;;15.17;34.67;100108.66;7683659;32;39997;-74
2022/04/15 08:01:09;;;;;;;14.30;4.35;;;;;;;15.26;33.06;100112.38;7683489;32;40071;-74
2022/04/15 08:05:25;;;;;;;8.85;4.22;;;;;;;15.11;34.41;100118.06;7683599;32;38262;-74
2022/04/15 08:09:41;;;;;;;9.48;4.87;;;;;;;15.45;34.29;100122.56;7683492;32;37083;-74
2022/04/15 08:13:57;;;;;;;9.73;5.15;;;;;;;15.23;36.15;100117.66;7681229;32;242927;-74
2022/04/15 08:18:13;;;;;;;16.58;6.22;;;;;;;15.16;36.64;100118.00;7692173;32;40775;-75
2022/04/15 08:22:34;;;;;;;17.50;6.65;;;;;;;15.62;36.55;100124.81;7692291;32;37999;-75
2022/04/15 08:26:54;;;;;;;19.65;7.53;;;;;;;15.88;36.47;100122.53;7692093;32;36906;-74
2022/04/15 08:31:10;;;;;;;15.13;7.30;;;;;;;16.21;34.72;100122.53;7692014;32;39059;-74
2022/04/15 08:35:28;;;;;;;12.45;7.28;;;;;;;15.56;35.60;100129.56;7690510;32;39752;-74
2022/04/15 08:39:44;;;;;;;16.40;7.87;;;;;;;15.84;34.82;100127.81;7691648;32;38761;-74
2022/04/15 08:44:03;;;;;;;14.82;8.10;;;;;;;15.78;34.73;100134.50;7691547;32;37954;-74
2022/04/15 08:48:19;;;;;;;11.95;6.32;;;;;;;15.71;33.74;100123.84;7691577;32;40160;-75
2022/04/15 08:52:35;;;;;;;11.68;5.93;;;;;;;16.18;32.50;100112.13;7691320;32;40677;-74
2022/04/15 08:56:51;;;;;;;10.38;5.70;;;;;;;16.00;31.88;100120.12;7691213;32;37979;-74
2022/04/15 09:01:07;;;;;;;9.88;5.22;;;;;;;15.96;31.10;100128.16;7691009;32;37213;-74
2022/04/15 09:05:28;;;;;;;13.85;6.60;;;;;;;16.49;30.75;100110.47;7691160;32;40108;-74
2022/04/15 09:09:53;;;;;;;10.32;5.82;;;;;;;16.27;31.62;100115.84;7691625;32;40092;-75
2022/04/15 09:14:12;;;;;;;8.95;5.05;;;;;;;16.24;31.14;100099.94;7689641;32;37971;-74
2022/04/15 09:18:37;;;;;;;18.83;5.55;;;;;;;16.56;31.16;100088.06;7690978;32;37319;-75
2022/04/15 09:23:08;;;;;;;11.05;5.55;;;;;;;16.46;30.87;100085.50;7690118;32;40134;-74
2022/04/15 09:27:25;;;;;;;12.48;5.60;;;;;;;16.81;30.59;100083.97;7685472;32;40551;-74
2022/04/15 09:31:44;;;;;;;12.98;5.78;;;;;;;17.11;29.40;100076.25;7685590;32;37906;-74
2022/04/15 09:36:00;;;;;;;12.37;5.60;;;;;;;17.35;29.14;100056.69;7684496;32;36191;-75
2022/04/15 09:40:18;;;;;;;9.52;5.60;;;;;;;16.81;30.61;100042.66;7685574;32;40345;-75
2022/04/15 09:44:35;;;;;;;10.35;5.30;;;;;;;17.35;28.94;100064.13;7685492;32;40860;-74
2022/04/15 09:49:06;;;;;;;14.00;5.50;;;;;;;17.78;27.74;100075.53;7685385;32;38578;-74
2022/04/15 09:53:24;;;;;;;12.07;5.12;;;;;;;17.83;26.59;100066.31;7685293;32;36999;-74
2022/04/15 09:57:42;;;;;;;8.43;4.45;;;;;;;18.20;25.91;100056.84;7685236;32;40202;-74
2022/04/15 10:02:02;;;;;;;12.85;5.30;;;;;;;18.33;25.32;100046.00;7684841;32;40206;-74
2022/04/15 10:06:18;;;;;;;14.02;5.62;;;;;;;18.36;24.55;100054.47;7685034;32;37938;-72
2022/04/15 10:10:52;;;;;;;8.18;4.60;;;;;;;19.30;22.73;100048.75;7685175;32;37945;-72
2022/04/15 10:15:10;;;;;;;8.98;4.68;;;;;;;19.22;23.75;100062.56;7684978;32;39288;-72
2022/04/15 10:19:26;;;;;;;11.55;5.03;;;;;;;19.44;21.88;100065.19;7683813;32;39714;-72
2022/04/15 10:23:43;;;;;;;16.52;5.78;;;;;;;20.00;21.97;100057.03;7683746;32;37624;-72
2022/04/15 10:28:19;;;;;;;12.68;5.65;;;;;;;19.98;21.97;100050.19;7683758;32;37746;-72
2022/04/15 10:32:51;;;;;;;11.70;6.22;;;;;;;20.43;23.57;100047.78;7685022;32;40026;-72
2022/04/15 10:37:09;;;;;;;12.43;5.18;;;;;;;19.84;24.36;100044.84;7684396;32;40106;-72
2022/04/15 10:41:25;;;;;;;9.38;4.87;;;;;;;19.97;24.41;100054.09;7683474;32;38731;-72
2022/04/15 10:45:41;;;;;;;11.50;4.85;;;;;;;20.39;23.32;100048.78;7684747;32;37235;-72
2022/04/15 10:50:06;;;;;;;8.32;4.32;;;;;;;20.61;22.38;100040.22;7684930;32;39435;-72
2022/04/15 10:54:37;;;;;;;9.80;4.15;;;;;;;20.88;23.21;100037.34;7684768;32;39992;-72
2022/04/15 11:03:31;;;;;;;12.52;4.78;;;;;;;20.45;26.43;100064.06;7684416;32;37613;-72
2022/04/15 11:08:12;;;;;;;11.18;4.90;;;;;;;19.88;28.44;100063.22;7683498;32;39255;-72
2022/04/15 11:12:41;;;;;;;8.93;4.07;;;;;;;19.67;27.95;100053.94;7683483;32;40490;-72
2022/04/15 11:16:59;;;;;;;7.18;4.18;;;;;;;19.22;28.42;100059.81;7684448;32;38092;-72
2022/04/15 11:21:23;;;;;;;8.93;3.92;;;;;;;18.20;28.44;100069.81;7683394;32;37341;-71
2022/04/15 11:25:43;;;;;;;7.37;3.78;;;;;;;19.00;27.65;100072.59;7684284;32;40145;-72
2022/04/15 11:29:59;;;;;;;8.60;4.25;;;;;;;19.12;27.37;100070.00;7682466;32;40667;-72
2022/04/15 11:34:20;;;;;;;9.00;3.85;;;;;;;19.30;26.44;100079.16;7684049;32;38776;-72
2022/04/15 11:38:36;;;;;;;8.93;3.67;;;;;;;19.15;28.39;100074.09;7683141;32;37199;-72
2022/04/15 11:42:58;;;;;;;7.80;3.60;;;;;;;19.08;29.04;100080.09;7682919;32;40496;-72
2022/04/15 11:47:19;;;;;;;10.05;3.97;;;;;;;18.56;32.42;100077.94;7683000;32;40121;-72
2022/04/15 11:51:35;;;;;;;8.07;4.50;;;;;;;18.66;35.21;100084.31;7682730;32;37990;-72
2022/04/15 11:55:58;;;;;;;8.70;4.55;;;;;;;18.27;38.34;100089.50;7684142;32;35517;-72
2022/04/15 12:00:18;;;;;;;12.18;5.65;;;;;;;18.17;38.64;100084.25;7683714;32;39136;-72
2022/04/15 12:04:34;;;;;;;9.88;4.97;;;;;;;17.51;39.56;100084.72;7682452;32;39789;-72
2022/04/15 12:08:51;;;;;;;9.52;4.43;;;;;;;17.91;40.12;100078.56;7683416;32;37920;-72
2022/04/15 12:13:07;;;;;;;13.95;5.22;;;;;;;17.90;39.98;100086.03;7683454;32;37978;-72
2022/04/15 12:17:24;;;;;;;10.40;5.35;;;;;;;17.74;39.63;100076.47;7683161;32;39449;-74
2022/04/15 12:21:42;;;;;;;10.93;5.50;;;;;;;17.61;39.31;100081.72;7683260;32;40499;-74
2022/04/15 12:26:16;;;;;;;10.15;5.03;;;;;;;17.77;39.51;100076.66;7681881;32;39394;-74
2022/04/15 12:30:37;;;;;;;13.98;6.78;;;;;;;17.12;38.98;100074.28;7683065;32;37579;-74
2022/04/15 12:34:59;;;;;;;11.12;5.50;;;;;;;17.71;37.74;100074.31;7682842;32;39286;-74
2022/04/15 12:39:15;;;;;;;12.32;6.32;;;;;;;17.58;37.84;100082.34;7682913;32;40796;-74
2022/04/15 12:43:31;;;;;;;10.57;5.40;;;;;;;17.59;38.41;100075.72;7682765;32;38179;-74
2022/04/15 12:48:00;;;;;;;12.43;5.30;;;;;;;17.63;38.15;100065.69;7682699;32;37029;-74
2022/04/15 12:52:18;;;;;;;11.50;5.47;;;;;;;17.45;39.09;100061.97;7682522;32;39309;-74
2022/04/15 12:56:35;;;;;;;11.90;5.47;;;;;;;17.84;38.95;100067.94;7682102;32;39889;-75
2022/04/15 13:00:54;;;;;;;13.57;5.53;;;;;;;17.99;39.88;100061.28;7683494;32;38985;-74
2022/04/15 13:05:11;;;;;;;14.13;6.95;;;;;;;17.91;40.36;100060.06;7686119;32;36969;-74
2022/04/15 13:09:27;;;;;;;13.40;6.60;;;;;;;18.33;39.33;100046.00;7685985;32;40220;-74
2022/04/15 13:13:43;;;;;;;12.37;6.45;;;;;;;18.04;40.44;100044.59;7685723;32;39993;-71
2022/04/15 13:18:05;;;;;;;13.48;7.60;;;;;;;18.10;40.48;100039.75;7685537;32;37673;-72
2022/04/15 13:22:21;;;;;;;12.23;7.00;;;;;;;18.14;41.05;100040.72;7685735;32;37949;-72
2022/04/15 13:26:37;;;;;;;13.10;7.60;;;;;;;18.13;41.46;100039.12;7685663;32;39291;-71
2022/04/15 13:30:53;;;;;;;12.18;7.78;;;;;;;18.20;40.97;100028.44;7685556;32;39856;-73
2022/04/15 13:35:09;;;;;;;12.57;6.03;;;;;;;18.28;41.98;100021.31;7684334;32;37895;-74
2022/04/15 13:39:25;;;;;;;14.38;6.80;;;;;;;18.06;41.37;100019.41;7685622;32;37316;-74
2022/04/15 13:43:42;;;;;;;14.85;6.70;;;;;;;18.72;40.57;100003.78;7685571;32;40166;-74
2022/04/15 13:47:58;;;;;;;13.13;6.22;;;;;;;18.73;40.88;99999.88;7685450;32;39754;-75
2022/04/15 13:56:50;;;;;;;11.12;6.75;;;;;;;19.16;40.55;99987.28;7685429;32;37267;-74
2022/04/15 14:01:23;;;;;;;17.33;7.22;;;;;;;19.84;39.61;99992.31;7685165;32;39088;-74
2022/04/15 14:05:42;;;;;;;11.95;6.93;;;;;;;19.44;38.62;99995.25;7685400;32;39763;-74
2022/04/15 14:09:58;;;;;;;14.68;6.65;;;;;;;18.94;40.71;99986.31;7684516;32;38782;-74
2022/04/15 14:14:15;;;;;;;14.50;6.32;;;;;;;18.84;40.99;99986.59;7685146;32;37276;-74
2022/04/15 14:18:31;;;;;;;10.50;5.93;;;;;;;19.24;40.07;99985.66;7685065;32;39432;-75
2022/04/15 14:22:47;;;;;;;10.63;5.70;;;;;;;19.89;38.77;99972.75;7684983;32;39863;-75
2022/04/15 14:27:06;;;;;;;10.00;5.62;;;;;;;20.24;38.65;99978.16;7685041;32;38647;-75
2022/04/15 14:31:22;;;;;;;13.75;6.00;;;;;;;20.55;38.16;99979.81;7685158;32;37714;-74
2022/04/15 14:35:43;;;;;;;10.68;6.10;;;;;;;20.93;37.14;99970.63;7684850;32;39020;-75
2022/04/15 14:39:59;;;;;;;10.52;6.03;;;;;;;20.60;37.34;99985.16;7684498;32;40698;-75
2022/04/15 14:44:15;;;;;;;11.43;6.25;;;;;;;20.35;37.93;99975.81;7684715;32;37913;-75
2022/04/15 14:48:32;;;;;;;10.13;6.05;;;;;;;20.28;38.79;99970.81;7684794;32;37140;-75
2022/04/15 14:52:48;;;;;;;11.63;6.60;;;;;;;20.53;38.39;99963.53;7684851;32;38963;-75
2022/04/15 14:57:06;;;;;;;10.60;5.68;;;;;;;20.65;37.80;99967.56;7684656;32;39641;-75
2022/04/15 15:01:22;;;;;;;11.30;5.25;;;;;;;20.81;37.42;99968.59;7684402;32;38437;-75
2022/04/15 15:05:40;;;;;;;13.07;5.65;;;;;;;21.16;36.91;99969.16;7684419;32;38083;-75
2022/04/15 15:09:56;;;;;;;9.68;4.90;;;;;;;20.84;37.41;99965.16;7684699;32;39206;-75
2022/04/15 15:14:13;;;;;;;8.35;4.15;;;;;;;20.94;36.88;99966.72;7684467;32;40787;-75
2022/04/15 15:18:29;;;;;;;8.82;3.90;;;;;;;20.51;37.82;99968.59;7684363;32;37952;-75
2022/04/15 15:22:45;;;;;;;6.87;4.03;;;;;;;20.58;37.45;99968.88;7683194;32;37204;-75
2022/04/15 15:31:35;;;;;;;6.87;4.00;;;;;;;20.95;36.45;99958.03;7684251;32;40775;-75
2022/04/15 15:35:53;;;;;;;8.02;4.35;;;;;;;21.31;37.54;99953.03;7684068;32;38658;-73
2022/04/15 15:40:09;;;;;;;8.52;3.70;;;;;;;21.87;35.19;99944.31;7684166;32;38029;-73
2022/04/15 15:44:25;;;;;;;9.52;3.65;;;;;;;21.39;35.94;99952.97;7683884;32;40219;-73
2022/04/15 15:48:41;;;;;;;6.53;3.70;;;;;;;20.97;35.71;99939.16;7683926;32;40676;-72
2022/04/15 15:52:58;;;;;;;5.43;3.08;;;;;;;20.79;36.27;99940.41;7683813;32;37886;-72
2022/04/15 15:57:14;;;;;;;5.78;3.25;;;;;;;20.57;36.86;99931.22;7683715;32;37755;-72
2022/04/15 16:01:30;;;;;;;8.68;3.58;;;;;;;20.34;37.28;99935.47;7683551;32;40057;-73
2022/04/15 16:05:48;;;;;;;13.00;4.03;;;;;;;20.09;38.51;99924.16;7683628;32;40561;-72
2022/04/15 16:10:07;;;;;;;8.48;4.10;;;;;;;19.76;38.93;99922.00;7683412;32;38390;-72
2022/04/15 16:14:32;;;;;;;14.13;4.12;;;;;;;19.93;38.47;99914.81;7683584;32;37661;-72
2022/04/15 16:18:48;;;;;;;9.40;4.00;;;;;;;19.99;38.30;99914.28;7683303;32;39047;-72
2022/04/15 16:23:05;;;;;;;9.25;4.47;;;;;;;19.84;39.37;99915.66;7683185;32;39708;-72
2022/04/15 16:27:22;;;;;;;7.30;3.97;;;;;;;20.01;39.04;99911.19;7682876;32;38515;-72
2022/04/15 16:31:39;;;;;;;5.43;3.55;;;;;;;20.27;38.13;99917.41;7683054;32;37219;-73
2022/04/15 16:35:56;;;;;;;11.10;3.30;;;;;;;20.40;38.24;99917.50;7685575;32;40295;-73
2022/04/15 16:40:12;;;;;;;5.30;3.15;;;;;;;20.63;38.66;99905.00;7686167;32;40080;-72
2022/04/15 16:44:29;;;;;;;6.53;3.20;;;;;;;21.14;36.03;99901.34;7686186;32;38751;-72
2022/04/15 16:48:45;;;;;;;5.60;3.10;;;;;;;20.91;37.03;99898.12;7686218;32;37095;-73
2022/04/15 16:53:03;;;;;;;11.10;3.62;;;;;;;20.72;36.44;99893.84;7686039;32;40256;-72
2022/04/15 17:01:54;;;;;;;6.32;3.40;;;;;;;20.50;36.39;99886.66;7685495;32;37967;-72
2022/04/15 17:06:11;;;;;;;7.05;3.72;;;;;;;20.34;37.08;99888.41;7685610;32;37655;-73
2022/04/15 17:10:27;;;;;;;33.38;16.15;;;;;;;20.75;36.38;99876.56;7685385;32;39587;-73
2022/04/15 17:14:43;;;;;;;11.18;5.00;;;;;;;20.80;36.04;99878.34;7685320;32;40209;-73
2022/04/15 17:18:59;;;;;;;8.30;4.30;;;;;;;20.39;36.40;99880.69;7685283;32;37895;-73
2022/04/15 17:23:16;;;;;;;8.98;3.95;;;;;;;20.36;36.58;99881.38;7685748;32;35207;-73
2022/04/15 17:27:32;;;;;;;7.70;3.83;;;;;;;19.84;37.89;99885.22;7685310;32;39370;-73
2022/04/15 17:31:48;;;;;;;7.80;4.22;;;;;;;19.46;38.36;99894.25;7685330;32;40795;-73
2022/04/15 17:36:04;;;;;;;12.10;5.55;;;;;;;19.46;37.92;99902.56;7685182;32;38383;-73
2022/04/15 17:40:21;;;;;;;8.57;4.47;;;;;;;19.46;37.58;99908.09;7685363;32;37091;-73
2022/04/15 17:44:37;;;;;;;8.40;4.22;;;;;;;18.99;38.77;99919.03;7684485;32;39290;-73
2022/04/15 17:48:53;;;;;;;11.85;5.40;;;;;;;19.09;38.48;99910.41;7685206;32;39990;-72
2022/04/15 17:53:10;;;;;;;9.00;4.45;;;;;;;18.64;39.43;99926.44;7685365;32;39000;-73
2022/04/15 17:57:26;;;;;;;10.10;4.00;;;;;;;18.42;39.64;99930.13;7685010;32;37348;-73
2022/04/15 18:01:42;;;;;;;9.48;4.05;;;;;;;18.25;39.44;99942.75;7684798;32;40239;-72
2022/04/15 18:05:58;;;;;;;7.28;4.10;;;;;;;18.41;38.92;99945.06;7685102;32;40646;-73
2022/04/15 18:10:14;;;;;;;9.10;3.83;;;;;;;17.94;40.02;99949.13;7684933;32;37696;-72
2022/04/15 18:14:30;;;;;;;7.35;3.72;;;;;;;17.81;40.11;99950.00;7684130;32;36692;-73
2022/04/15 18:18:46;;;;;;;5.40;3.53;;;;;;;17.87;39.60;99959.81;7683704;32;38999;-72
2022/04/15 18:23:06;;;;;;;6.05;3.53;;;;;;;17.66;40.11;99967.75;7684805;32;39584;-72
2022/04/15 18:27:22;;;;;;;6.78;3.70;;;;;;;17.42;40.61;99966.12;7684766;32;38856;-72
2022/04/15 18:31:38;;;;;;;6.30;3.17;;;;;;;17.31;40.90;99958.44;7684725;32;37628;-73
2022/04/15 18:35:55;;;;;;;8.02;4.68;;;;;;;17.27;40.72;99970.06;7684636;32;39447;-72
2022/04/15 18:40:13;;;;;;;19.15;12.50;;;;;;;17.31;40.37;99994.25;7684663;32;40178;-73
2022/04/15 18:44:29;;;;;;;18.67;11.05;;;;;;;17.02;41.39;99985.28;7684567;32;37031;-72
2022/04/15 18:53:34;;;;;;;14.60;7.30;;;;;;;17.05;40.73;99994.84;7684491;32;40111;-72
2022/04/15 18:57:50;;;;;;;10.32;5.45;;;;;;;16.87;40.87;99991.13;7684081;32;39701;-72
2022/04/15 19:02:08;;;;;;;11.15;5.43;;;;;;;16.58;41.57;99991.44;7684154;32;37606;-73
2022/04/15 19:06:24;;;;;;;7.85;4.57;;;;;;;16.62;41.50;99993.25;7684291;32;36140;-72
2022/04/15 19:10:41;;;;;;;17.70;5.53;;;;;;;16.55;41.73;99986.53;7684402;32;39272;-72
2022/04/15 19:14:58;;;;;;;8.80;4.78;;;;;;;16.24;42.51;99993.47;7684245;32;40840;-72
2022/04/15 19:19:14;;;;;;;8.07;4.55;;;;;;;16.13;42.90;99987.34;7684017;32;37820;-72
2022/04/15 19:23:30;;;;;;;10.00;5.00;;;;;;;15.99;43.31;100004.94;7684212;32;37627;-72
2022/04/15 19:27:48;;;;;;;9.20;5.10;;;;;;;15.96;43.43;99993.44;7684056;32;39386;-72
2022/04/15 19:32:04;;;;;;;10.10;5.32;;;;;;;15.85;43.77;99993.91;7684021;32;39993;-72
2022/04/15 19:36:20;;;;;;;10.38;4.90;;;;;;;15.75;44.01;99995.72;7683852;32;38293;-72
2022/04/15 19:40:37;;;;;;;10.57;5.05;;;;;;;15.91;43.22;99998.22;7683839;32;38215;-72
2022/04/15 19:44:53;;;;;;;9.75;5.22;;;;;;;15.84;43.26;100006.03;7683889;32;39373;-72
2022/04/15 19:49:14;;;;;;;8.10;4.95;;;;;;;15.80;43.38;100005.00;7682492;32;40025;-72
2022/04/15 19:53:31;;;;;;;7.00;4.45;;;;;;;15.84;43.23;99995.84;7683514;32;38501;-72
2022/04/15 20:02:42;;;;;;;8.48;5.03;;;;;;;15.70;43.61;100005.97;7682657;32;40744;-72
2022/04/15 20:06:58;;;;;;;9.43;4.90;;;;;;;15.63;43.77;100008.28;7683333;32;40094;-72
2022/04/15 20:11:15;;;;;;;11.82;5.40;;;;;;;15.70;43.51;100017.78;7682390;32;38760;-72
2022/04/15 20:15:32;;;;;;;8.13;4.95;;;;;;;15.82;43.09;100024.78;7682020;32;37229;-71
2022/04/15 20:19:50;;;;;;;16.80;5.75;;;;;;;15.60;43.80;100034.44;7683095;32;40061;-72
2022/04/15 20:24:07;;;;;;;10.52;5.15;;;;;;;15.59;43.99;100030.03;7682940;32;38873;-72